Time;durP1;ratioP1;P1;durP2;ratioP2;P2;SDS_P1;SDS_P2;PMS_P1;PMS_P2;Temp;Humidity;BMP_temperature;BMP_pressure;BME280_temperature;BME280_humidity;BME280_pressure;Samples;Min_cycle;Max_cycle;Signal;HPM_P1;HPM_P2
2023/03/24 00:01:37;;;;;;;1.35;0.85;;;;;;;11.76;100.00;99776.09;5035707;28;110921;-29
2023/03/24 00:04:03;;;;;;;1.13;0.68;;;;;;;11.76;100.00;99765.25;5035304;27;110995;-28
2023/03/24 00:06:33;;;;;;;0.55;0.47;;;;;;;11.74;100.00;99763.66;5034894;28;96706;-28
2023/03/24 00:08:59;;;;;;;1.25;0.82;;;;;;;11.75;100.00;99757.22;5035107;28;96799;-28
2023/03/24 00:11:25;;;;;;;1.55;0.80;;;;;;;11.78;100.00;99781.41;5034452;28;100779;-29
2023/03/24 00:13:51;;;;;;;1.13;0.55;;;;;;;11.78;100.00;99752.41;5034469;28;99180;-29
2023/03/24 00:16:18;;;;;;;1.45;0.70;;;;;;;11.81;100.00;99762.13;5034165;28;96581;-29
2023/03/24 00:18:49;;;;;;;0.40;0.40;;;;;;;11.86;100.00;99762.63;5034713;28;96842;-28
2023/03/24 00:21:14;;;;;;;1.90;0.80;;;;;;;11.86;100.00;99754.47;5034381;28;101023;-28
2023/03/24 00:23:41;;;;;;;1.90;0.90;;;;;;;11.88;100.00;99741.66;5035439;27;99685;-29
2023/03/24 00:26:11;;;;;;;1.52;0.77;;;;;;;11.88;100.00;99731.66;5035551;27;96853;-28
2023/03/24 00:28:37;;;;;;;2.15;0.70;;;;;;;11.94;100.00;99743.00;5035723;27;96755;-28
2023/03/24 00:31:05;;;;;;;1.80;0.73;;;;;;;11.93;99.93;99738.56;5033720;28;101506;-28
2023/03/24 00:33:31;;;;;;;1.98;1.17;;;;;;;11.96;99.67;99732.88;5034438;28;102209;-28
2023/03/24 00:35:58;;;;;;;1.38;0.55;;;;;;;11.94;99.59;99730.31;5034468;28;96780;-30
2023/03/24 00:38:25;;;;;;;1.35;0.75;;;;;;;11.95;100.00;99728.44;5034252;28;96838;-29
2023/03/24 00:40:51;;;;;;;0.85;0.55;;;;;;;11.96;99.98;99730.16;5033546;28;100891;-28
2023/03/24 00:43:17;;;;;;;1.02;0.68;;;;;;;11.97;99.64;99716.47;5033480;28;100951;-28
2023/03/24 00:45:46;;;;;;;1.67;0.60;;;;;;;11.96;100.00;99725.59;5034287;28;96615;-29
2023/03/24 00:48:17;;;;;;;0.82;0.52;;;;;;;11.96;100.00;99730.16;5034093;28;96894;-29
2023/03/24 00:50:50;;;;;;;0.80;0.65;;;;;;;11.95;100.00;99723.03;5035236;27;98226;-28
2023/03/24 00:53:17;;;;;;;0.70;0.60;;;;;;;11.90;100.00;99705.28;5033756;28;101335;-28
2023/03/24 00:55:44;;;;;;;1.45;0.47;;;;;;;11.92;100.00;99706.97;5033907;28;96814;-28
2023/03/24 00:58:16;;;;;;;2.03;0.90;;;;;;;11.93;100.00;99714.16;5034332;28;96888;-28
2023/03/24 01:00:42;;;;;;;;;;;;;;;11.94;100.00;99705.88;5034726;27;99251;-28
2023/03/24 01:03:08;;;;;;;1.08;0.65;;;;;;;11.92;100.00;99704.25;5033385;28;101352;-29
2023/03/24 01:05:35;;;;;;;1.20;0.93;;;;;;;11.92;100.00;99699.72;5034656;27;96444;-31
2023/03/24 01:08:05;;;;;;;2.10;0.60;;;;;;;11.95;100.00;99712.16;5035156;27;96782;-30
2023/03/24 01:10:41;;;;;;;0.90;0.60;;;;;;;11.95;100.00;99706.75;5034768;28;99937;-29
2023/03/24 01:13:07;;;;;;;1.38;0.65;;;;;;;11.96;100.00;99703.88;5034918;27;99449;-29
2023/03/24 01:15:35;;;;;;;0.73;0.50;;;;;;;11.96;100.00;99692.16;5035367;27;96788;-28
2023/03/24 01:18:01;;;;;;;1.10;1.00;;;;;;;11.96;100.00;99695.72;5033891;28;96872;-28
2023/03/24 01:20:31;;;;;;;0.40;0.35;;;;;;;11.99;100.00;99687.34;5033488;28;100988;-28
2023/03/24 01:22:57;;;;;;;0.88;0.57;;;;;;;11.99;100.00;99691.88;5034968;27;98949;-29
2023/03/24 01:25:24;;;;;;;0.98;0.50;;;;;;;12.01;100.00;99704.38;5033610;28;96641;-28
2023/03/24 01:27:51;;;;;;;0.90;0.50;;;;;;;12.04;100.00;99705.94;5033244;28;96890;-28
2023/03/24 01:30:22;;;;;;;1.17;0.50;;;;;;;12.03;100.00;99710.50;5032711;28;101317;-29
2023/03/24 01:32:48;;;;;;;1.83;0.70;;;;;;;12.07;100.00;99700.25;5033360;28;100627;-28
2023/03/24 01:35:14;;;;;;;2.70;1.20;;;;;;;12.05;100.00;99699.53;5034527;27;96625;-30
2023/03/24 01:37:39;;;;;;;1.38;0.73;;;;;;;12.05;100.00;99705.81;5034997;27;96754;-29
2023/03/24 01:40:09;;;;;;;0.98;0.68;;;;;;;12.05;100.00;99708.50;5034441;27;99384;-28
2023/03/24 01:42:36;;;;;;;1.83;0.90;;;;;;;12.02;100.00;99719.66;5034275;27;97795;-30
2023/03/24 01:45:40;;;;;;;1.17;0.60;;;;;;;12.00;100.00;99743.34;5034841;27;96646;-28
2023/03/24 01:48:19;;;;;;;1.48;0.80;;;;;;;12.01;100.00;99776.75;5034934;28;96909;-28
2023/03/24 01:50:53;;;;;;;1.55;0.80;;;;;;;11.93;100.00;99768.41;5033161;28;100779;-29
2023/03/24 01:53:19;;;;;;;1.65;0.68;;;;;;;11.94;100.00;99767.41;5033017;28;100152;-28
2023/03/24 01:55:46;;;;;;;0.40;0.35;;;;;;;11.88;100.00;99766.94;5032657;28;97472;-29
2023/03/24 01:58:12;;;;;;;0.85;0.30;;;;;;;11.83;99.90;99771.03;5033071;28;96865;-29
2023/03/24 02:00:38;;;;;;;1.30;0.43;;;;;;;11.74;99.25;99766.38;5034787;28;97143;-28
2023/03/24 02:03:08;;;;;;;0.70;0.35;;;;;;;11.73;98.43;99783.59;5032879;28;100733;-29
2023/03/24 02:05:37;;;;;;;0.47;0.20;;;;;;;11.64;97.72;99777.13;5033309;28;96572;-29
2023/03/24 02:08:05;;;;;;;1.95;0.47;;;;;;;11.58;97.37;99793.91;5033090;28;96818;-29
2023/03/24 02:10:33;;;;;;;0.95;0.25;;;;;;;11.55;96.91;99800.44;5034174;27;98426;-29
2023/03/24 02:12:58;;;;;;;1.58;0.73;;;;;;;11.54;96.90;99797.88;5034898;27;100923;-28
2023/03/24 02:15:27;;;;;;;1.27;0.25;;;;;;;11.47;96.74;99811.06;5037913;27;96484;-29
2023/03/24 02:18:12;;;;;;;0.45;0.20;;;;;;;11.43;96.78;99815.88;5037922;28;96724;-30
2023/03/24 02:21:19;;;;;;;3.10;0.40;;;;;;;11.35;95.75;99829.19;5035862;28;101261;-28
2023/03/24 02:24:02;;;;;;;0.85;0.30;;;;;;;11.32;95.83;99834.88;5031234;28;97793;-28
2023/03/24 02:27:05;;;;;;;0.93;0.38;;;;;;;11.27;95.48;99847.91;5035641;28;96891;-28
2023/03/24 02:29:40;;;;;;;0.60;0.15;;;;;;;11.22;95.30;99839.28;5037749;28;96871;-28
2023/03/24 02:32:25;;;;;;;1.45;0.45;;;;;;;11.19;95.37;99845.81;5037020;27;99248;-28
2023/03/24 02:35:40;;;;;;;2.08;0.63;;;;;;;11.11;95.15;99844.72;5037461;27;99176;-29
2023/03/24 02:38:18;;;;;;;2.42;0.60;;;;;;;11.01;94.12;99841.88;4994884;28;96922;-28
2023/03/24 02:40:54;;;;;;;1.40;0.38;;;;;;;10.98;94.68;99864.66;4978968;28;97113;-28
2023/03/24 02:43:46;;;;;;;1.42;0.60;;;;;;;10.93;94.63;99866.03;5011739;28;101074;-28
2023/03/24 02:46:23;;;;;;;1.05;0.30;;;;;;;10.83;94.55;99871.31;5035634;28;99161;-28
2023/03/24 02:49:25;;;;;;;0.93;0.30;;;;;;;10.81;94.68;99881.38;5035565;28;96674;-28
2023/03/24 02:52:02;;;;;;;;;;;;;;;10.77;94.85;99888.03;5038347;28;96564;-30
2023/03/24 02:54:57;;;;;;;1.38;0.30;;;;;;;10.70;95.16;99889.47;5036756;28;100736;-28
2023/03/24 02:57:33;;;;;;;3.15;0.30;;;;;;;10.57;94.20;99882.31;5037116;27;99205;-30
2023/03/24 03:00:33;;;;;;;2.05;0.57;;;;;;;10.55;94.92;99900.50;5035899;28;96638;-28
2023/03/24 03:03:06;;;;;;;0.88;0.32;;;;;;;10.50;95.04;99904.56;4994535;28;96831;-28
2023/03/24 03:05:36;;;;;;;1.25;0.45;;;;;;;10.43;95.32;99909.56;5029890;27;99196;-28
2023/03/24 03:08:06;;;;;;;0.47;0.20;;;;;;;10.38;95.25;99903.66;5035853;28;101043;-27
2023/03/24 03:10:39;;;;;;;0.77;0.52;;;;;;;10.35;95.08;99914.72;5035665;28;96564;-29
2023/03/24 03:13:21;;;;;;;1.27;0.55;;;;;;;10.31;95.26;99908.66;5035824;28;96715;-28
2023/03/24 03:15:52;;;;;;;2.25;0.47;;;;;;;10.28;95.33;99902.59;5034984;28;100830;-28
2023/03/24 03:18:24;;;;;;;8.60;1.10;;;;;;;10.26;95.30;99908.13;5035383;28;99882;-28
2023/03/24 03:20:56;;;;;;;1.80;0.57;;;;;;;10.25;95.15;99925.34;5035574;28;96676;-29
2023/03/24 03:23:38;;;;;;;3.55;0.75;;;;;;;10.18;95.17;99934.91;5035464;27;96683;-29
2023/03/24 03:26:08;;;;;;;1.27;0.57;;;;;;;10.12;95.21;99928.09;5034691;28;100978;-28
2023/03/24 03:28:38;;;;;;;1.17;0.30;;;;;;;10.16;95.56;99921.47;5036750;27;97813;-28
2023/03/24 03:31:14;;;;;;;2.15;0.50;;;;;;;10.13;95.54;99935.25;5035034;28;96709;-28
2023/03/24 03:33:45;;;;;;;0.35;0.20;;;;;;;10.10;95.60;99938.16;5035888;28;96934;-30
2023/03/24 03:36:21;;;;;;;5.15;0.75;;;;;;;10.08;95.82;99942.84;5035179;28;98995;-29
2023/03/24 03:38:54;;;;;;;3.30;0.57;;;;;;;10.08;96.09;99944.66;5035043;28;100944;-28
2023/03/24 03:41:20;;;;;;;3.72;0.77;;;;;;;10.06;96.24;99943.91;5034921;28;96715;-29
2023/03/24 03:43:47;;;;;;;0.70;0.40;;;;;;;10.03;96.48;99945.00;5036739;27;96639;-28
2023/03/24 03:46:14;;;;;;;1.50;0.38;;;;;;;10.03;96.06;99946.84;5034807;28;100675;-28
2023/03/24 03:48:41;;;;;;;2.15;0.65;;;;;;;10.02;95.83;99951.41;5034547;28;101134;-28
2023/03/24 03:51:08;;;;;;;4.00;0.52;;;;;;;10.07;95.81;99951.06;5036554;27;96527;-29
2023/03/24 03:53:47;;;;;;;2.63;0.57;;;;;;;10.06;95.37;99954.75;5035115;28;96879;-28
2023/03/24 03:56:18;;;;;;;1.80;0.50;;;;;;;10.00;95.44;99953.38;5036426;28;98279;-28
2023/03/24 03:58:46;;;;;;;2.60;0.60;;;;;;;10.02;95.22;99956.81;5036622;28;97493;-29
2023/03/24 04:01:18;;;;;;;0.63;0.38;;;;;;;10.00;94.99;99939.84;5036311;28;96636;-28
2023/03/24 04:03:58;;;;;;;1.92;0.32;;;;;;;9.96;94.61;99943.72;5034925;28;96848;-29
2023/03/24 04:06:43;;;;;;;1.33;0.30;;;;;;;9.91;94.48;99959.44;5034124;28;98238;-29
2023/03/24 04:09:34;;;;;;;3.78;0.73;;;;;;;9.86;94.37;99962.47;5034669;28;100888;-28
2023/03/24 04:12:05;;;;;;;0.47;0.27;;;;;;;9.83;93.84;99965.41;5030913;28;96668;-28
2023/03/24 04:14:53;;;;;;;3.13;0.70;;;;;;;9.76;94.08;99981.22;5036464;27;96756;-28
2023/03/24 04:17:49;;;;;;;1.02;0.20;;;;;;;9.73;93.65;99992.28;5036024;28;98391;-28
2023/03/24 04:20:21;;;;;;;0.57;0.38;;;;;;;9.70;93.67;99984.38;5034147;27;101904;-28
2023/03/24 04:23:13;;;;;;;3.90;0.25;;;;;;;9.72;93.71;99987.81;5036313;27;96577;-28
2023/03/24 04:25:57;;;;;;;1.75;0.63;;;;;;;9.66;93.87;99984.72;5036310;27;96553;-29
2023/03/24 04:28:57;;;;;;;2.28;0.68;;;;;;;9.66;93.94;99992.81;5034153;28;101065;-28
2023/03/24 04:31:36;;;;;;;10.95;0.95;;;;;;;9.64;93.97;99995.63;5034104;28;100930;-28
2023/03/24 04:34:08;;;;;;;1.70;0.55;;;;;;;9.66;94.25;99990.13;5034004;28;96571;-29
2023/03/24 04:36:49;;;;;;;0.22;0.22;;;;;;;9.63;94.19;99999.31;5034237;27;96661;-28
2023/03/24 04:39:18;;;;;;;4.15;0.90;;;;;;;9.64;94.29;100006.44;5035688;27;97908;-28
2023/03/24 04:41:46;;;;;;;7.13;1.25;;;;;;;9.64;94.16;100002.88;5035457;27;97825;-29
2023/03/24 04:44:16;;;;;;;5.40;0.63;;;;;;;9.61;94.08;99993.16;5034099;28;96737;-29
2023/03/24 04:46:42;;;;;;;2.58;0.98;;;;;;;9.59;94.26;100005.91;5034390;28;96707;-28
2023/03/24 04:49:07;;;;;;;1.63;0.50;;;;;;;9.59;94.33;100008.63;5035279;27;97443;-28
2023/03/24 04:51:33;;;;;;;6.50;0.82;;;;;;;9.59;94.55;100016.72;5036051;27;97276;-29
2023/03/24 04:53:59;;;;;;;5.35;1.00;;;;;;;9.60;94.45;100014.88;5035533;28;96635;-29
2023/03/24 04:56:27;;;;;;;1.05;0.35;;;;;;;9.62;94.62;100023.75;5035466;27;96743;-30
2023/03/24 04:58:52;;;;;;;3.88;1.10;;;;;;;9.61;94.76;100011.22;5033205;28;99445;-29
2023/03/24 05:01:20;;;;;;;5.78;1.05;;;;;;;9.61;94.61;100016.63;5035302;27;97271;-29
2023/03/24 05:03:46;;;;;;;1.70;0.47;;;;;;;9.60;94.82;100020.28;5033895;28;96581;-28
2023/03/24 05:06:11;;;;;;;4.30;0.50;;;;;;;9.55;95.13;100031.44;5034056;28;96942;-29
2023/03/24 05:08:37;;;;;;;2.80;0.38;;;;;;;9.53;95.05;100033.38;5034953;28;99341;-29
2023/03/24 05:11:03;;;;;;;1.85;0.30;;;;;;;9.54;95.04;100035.13;5033618;28;100542;-29
2023/03/24 05:13:28;;;;;;;3.03;0.95;;;;;;;9.53;94.73;100045.06;5035291;27;96722;-28
2023/03/24 05:15:54;;;;;;;1.25;0.32;;;;;;;9.52;94.79;100046.03;5035847;27;96784;-30
2023/03/24 05:18:20;;;;;;;0.28;0.22;;;;;;;9.49;94.98;100045.38;5034756;27;97741;-29
2023/03/24 05:20:45;;;;;;;5.35;0.70;;;;;;;9.50;94.37;100057.91;5035279;28;97503;-30
2023/03/24 05:23:11;;;;;;;1.92;0.55;;;;;;;9.49;94.66;100062.47;5034307;27;96578;-28
2023/03/24 05:25:36;;;;;;;5.10;0.80;;;;;;;9.51;94.43;100056.94;5035141;27;96739;-29
2023/03/24 05:28:01;;;;;;;2.35;0.40;;;;;;;9.53;94.42;100052.28;5033688;27;111069;-28
2023/03/24 05:30:27;;;;;;;3.10;0.57;;;;;;;9.52;94.49;100053.28;5034255;28;98588;-30
2023/03/24 05:32:52;;;;;;;1.65;0.40;;;;;;;9.56;94.13;100062.91;5035156;27;96688;-29
2023/03/24 05:35:17;;;;;;;2.08;0.75;;;;;;;9.60;94.13;100063.53;5034785;27;96906;-30
2023/03/24 05:37:43;;;;;;;1.13;0.60;;;;;;;9.58;94.17;100069.06;5035016;28;97425;-29
2023/03/24 05:40:09;;;;;;;2.45;1.13;;;;;;;9.61;93.90;100070.69;5035074;28;97812;-28
2023/03/24 05:42:34;;;;;;;1.02;0.40;;;;;;;9.60;93.80;100072.53;5033472;28;96691;-28
2023/03/24 05:45:00;;;;;;;4.07;0.57;;;;;;;9.63;93.43;100071.44;5033432;28;96890;-28
2023/03/24 05:47:26;;;;;;;5.18;0.77;;;;;;;9.62;93.61;100065.16;5033332;27;99269;-29
2023/03/24 05:49:51;;;;;;;2.40;0.65;;;;;;;9.65;93.09;100067.66;5033057;28;100904;-28
2023/03/24 05:52:19;;;;;;;4.47;0.90;;;;;;;9.67;93.13;100076.53;5035057;27;96567;-31
2023/03/24 05:54:44;;;;;;;2.00;0.63;;;;;;;9.68;92.90;100080.97;5034679;27;96823;-28
2023/03/24 05:57:13;;;;;;;5.68;1.13;;;;;;;9.68;92.77;100099.91;5034570;27;97937;-30
2023/03/24 05:59:39;;;;;;;3.95;0.93;;;;;;;9.69;92.90;100085.41;5033007;28;100732;-31
2023/03/24 06:02:04;;;;;;;1.90;0.47;;;;;;;9.70;92.69;100086.25;5034477;27;96522;-30
2023/03/24 06:04:30;;;;;;;3.17;0.57;;;;;;;9.68;92.99;100094.50;5035092;27;96718;-28
2023/03/24 06:06:57;;;;;;;2.00;0.60;;;;;;;9.72;92.71;100101.41;5034216;27;104881;-29
2023/03/24 06:09:24;;;;;;;3.72;0.30;;;;;;;9.74;92.86;100099.44;5032796;28;101243;-28
2023/03/24 06:11:50;;;;;;;2.67;0.57;;;;;;;9.75;92.72;100106.63;5032627;28;96614;-28
2023/03/24 06:14:15;;;;;;;3.00;0.52;;;;;;;9.74;92.68;100110.28;5034458;27;96779;-29
2023/03/24 06:16:41;;;;;;;3.17;0.47;;;;;;;9.77;93.04;100103.78;5034043;28;101499;-28
2023/03/24 06:19:07;;;;;;;1.17;0.57;;;;;;;9.77;92.55;100104.66;5034102;27;97810;-28
2023/03/24 06:21:33;;;;;;;0.40;0.20;;;;;;;9.73;93.23;100116.66;5034523;27;96539;-28
2023/03/24 06:23:59;;;;;;;1.63;0.68;;;;;;;9.74;93.01;100114.81;5034147;28;96782;-28
2023/03/24 06:26:24;;;;;;;0.80;0.52;;;;;;;9.75;92.98;100124.69;5032084;28;100700;-28
2023/03/24 06:28:53;;;;;;;5.00;1.13;;;;;;;9.73;92.76;100123.91;5034338;28;97429;-29
2023/03/24 06:31:20;;;;;;;2.22;0.68;;;;;;;9.77;92.74;100131.72;5032645;28;96708;-28
2023/03/24 06:33:49;;;;;;;1.63;0.60;;;;;;;9.77;92.66;100130.81;5034357;27;96725;-28
2023/03/24 06:36:15;;;;;;;5.00;0.90;;;;;;;9.78;92.85;100132.56;5031889;28;101765;-29
2023/03/24 06:38:41;;;;;;;4.65;1.08;;;;;;;9.81;92.80;100145.03;5034073;28;97517;-28
2023/03/24 06:41:06;;;;;;;4.70;0.82;;;;;;;9.78;92.80;100143.41;5034211;27;96548;-29
2023/03/24 06:43:32;;;;;;;1.80;0.35;;;;;;;9.82;92.61;100144.03;5033774;27;96519;-28
2023/03/24 06:45:58;;;;;;;3.03;0.25;;;;;;;9.85;92.73;100149.25;5033822;27;97976;-28
2023/03/24 06:48:25;;;;;;;0.85;0.40;;;;;;;9.89;92.45;100148.03;5032400;28;100767;-28
2023/03/24 06:50:55;;;;;;;4.18;0.70;;;;;;;9.91;92.29;100151.50;5032683;28;96542;-28
2023/03/24 06:53:21;;;;;;;7.40;0.65;;;;;;;9.94;92.15;100151.31;5033071;28;96680;-29
2023/03/24 06:55:49;;;;;;;0.60;0.28;;;;;;;9.97;92.08;100148.38;5033874;27;97811;-30
2023/03/24 06:58:16;;;;;;;3.20;0.95;;;;;;;10.02;91.82;100146.22;5032017;27;101412;-29
2023/03/24 07:00:42;;;;;;;1.02;0.47;;;;;;;10.12;91.72;100152.69;5034687;28;96651;-29
2023/03/24 07:03:08;;;;;;;2.50;0.70;;;;;;;10.09;91.42;100152.06;5035774;28;97010;-28
2023/03/24 07:05:41;;;;;;;1.42;0.70;;;;;;;10.07;91.63;100160.28;5037164;27;97426;-29
2023/03/24 07:08:06;;;;;;;2.08;0.65;;;;;;;10.10;91.57;100162.75;5035470;27;100364;-28
2023/03/24 07:10:35;;;;;;;2.30;0.63;;;;;;;10.15;91.39;100170.56;5036920;27;96544;-30
2023/03/24 07:13:02;;;;;;;3.30;0.70;;;;;;;10.28;91.13;100167.84;5035840;28;96930;-28
2023/03/24 07:15:28;;;;;;;2.25;0.50;;;;;;;10.24;90.75;100171.75;5035484;28;101051;-29
2023/03/24 07:17:53;;;;;;;1.92;0.50;;;;;;;10.34;90.83;100179.13;5035668;28;100759;-28
2023/03/24 07:20:19;;;;;;;2.25;0.50;;;;;;;10.37;90.53;100178.94;5037278;27;96560;-28
2023/03/24 07:22:45;;;;;;;0.82;0.45;;;;;;;10.41;90.38;100185.84;5036914;27;96910;-28
2023/03/24 07:25:13;;;;;;;4.28;0.68;;;;;;;10.43;90.18;100193.84;5035897;27;98115;-28
2023/03/24 07:27:39;;;;;;;0.68;0.47;;;;;;;10.45;90.44;100188.34;5035944;27;97803;-29
2023/03/24 07:30:05;;;;;;;2.08;0.45;;;;;;;10.49;90.84;100190.72;5035526;28;96684;-28
2023/03/24 07:32:33;;;;;;;0.75;0.15;;;;;;;10.49;90.64;100188.00;5035548;28;96846;-28
2023/03/24 07:35:00;;;;;;;2.97;0.65;;;;;;;10.50;90.50;100187.03;5036585;28;98035;-29
2023/03/24 07:37:25;;;;;;;1.17;0.50;;;;;;;10.56;90.48;100183.88;5035137;28;99279;-29
2023/03/24 07:39:51;;;;;;;2.67;0.80;;;;;;;10.68;89.89;100184.84;5036168;28;96797;-28
2023/03/24 07:42:16;;;;;;;4.00;0.43;;;;;;;10.78;89.73;100193.16;5036886;28;96793;-30
2023/03/24 07:44:41;;;;;;;0.55;0.47;;;;;;;10.84;90.11;100193.59;5036201;27;98357;-30
2023/03/24 07:47:07;;;;;;;1.40;0.45;;;;;;;10.90;89.29;100186.84;5036243;27;99136;-29
2023/03/24 07:49:32;;;;;;;3.33;0.35;;;;;;;10.98;89.10;100181.69;5035759;27;96606;-28
2023/03/24 07:51:58;;;;;;;4.75;0.63;;;;;;;11.38;88.16;100194.13;5036461;27;96829;-28
2023/03/24 07:54:24;;;;;;;1.48;0.80;;;;;;;11.58;86.89;100198.03;5035719;27;99310;-28
2023/03/24 07:56:49;;;;;;;2.60;0.75;;;;;;;11.73;86.18;100195.97;5034745;28;100768;-28
2023/03/24 07:59:16;;;;;;;2.67;0.77;;;;;;;11.85;85.83;100204.06;5036586;27;96516;-28
2023/03/24 08:01:42;;;;;;;1.95;0.68;;;;;;;11.96;85.11;100205.97;5035044;28;96923;-29
2023/03/24 08:04:11;;;;;;;1.77;0.73;;;;;;;12.07;84.55;100199.72;5032130;28;101011;-30
2023/03/24 08:06:36;;;;;;;2.95;0.80;;;;;;;12.20;84.18;100211.31;5032252;28;99435;-30
2023/03/24 08:09:01;;;;;;;5.28;0.52;;;;;;;12.33;83.46;100214.81;5033861;27;96759;-30
2023/03/24 08:11:27;;;;;;;2.83;0.80;;;;;;;12.42;83.18;100213.22;5033434;27;96796;-32
2023/03/24 08:13:52;;;;;;;3.42;1.15;;;;;;;12.49;82.20;100213.59;5032738;27;98818;-31
2023/03/24 08:16:17;;;;;;;6.65;0.80;;;;;;;12.43;81.92;100211.38;5033360;28;97352;-33
2023/03/24 08:18:43;;;;;;;2.33;0.77;;;;;;;12.59;82.34;100219.16;5034871;28;96646;-29
2023/03/24 08:21:08;;;;;;;3.28;0.95;;;;;;;12.84;81.61;100215.31;5036280;27;96893;-28
2023/03/24 08:23:35;;;;;;;9.85;0.73;;;;;;;13.06;80.44;100214.41;5035587;27;97959;-28
2023/03/24 08:26:01;;;;;;;1.92;0.75;;;;;;;13.04;79.43;100210.94;5034040;28;98945;-28
2023/03/24 08:28:26;;;;;;;1.05;0.47;;;;;;;13.11;78.99;100206.78;5036181;28;96654;-28
2023/03/24 08:30:52;;;;;;;7.18;1.10;;;;;;;13.19;78.44;100212.44;5035874;27;96837;-28
2023/03/24 08:33:17;;;;;;;4.38;0.85;;;;;;;12.95;78.92;100207.16;5034100;28;99239;-28
2023/03/24 08:35:44;;;;;;;0.80;0.60;;;;;;;12.99;79.32;100219.53;5035651;28;97907;-28
2023/03/24 08:38:11;;;;;;;2.42;0.32;;;;;;;13.28;79.34;100230.75;5035068;28;96649;-28
2023/03/24 08:40:39;;;;;;;3.53;1.10;;;;;;;13.23;78.39;100232.94;5034476;28;96942;-30
2023/03/24 08:43:07;;;;;;;3.70;0.73;;;;;;;13.09;77.26;100234.06;5033926;28;101021;-29
2023/03/24 08:45:33;;;;;;;2.53;0.60;;;;;;;12.83;78.34;100243.50;5033861;28;101339;-28
2023/03/24 08:48:00;;;;;;;4.40;0.68;;;;;;;12.63;79.14;100237.81;5034348;27;96713;-28
2023/03/24 08:50:29;;;;;;;8.27;0.73;;;;;;;12.63;79.10;100253.22;5034248;28;96943;-28
2023/03/24 08:52:55;;;;;;;1.45;0.77;;;;;;;12.46;79.56;100246.44;5033702;28;100785;-28
2023/03/24 08:55:21;;;;;;;3.40;0.82;;;;;;;12.60;79.61;100251.63;5034236;28;101289;-29
2023/03/24 08:57:48;;;;;;;1.40;0.55;;;;;;;13.03;79.10;100258.19;5034082;27;96464;-29
2023/03/24 09:00:15;;;;;;;1.60;0.57;;;;;;;13.27;78.21;100250.75;5034134;28;96842;-28
2023/03/24 09:02:42;;;;;;;2.95;0.57;;;;;;;13.23;77.20;100275.56;5034748;27;97782;-29
2023/03/24 09:05:08;;;;;;;4.47;1.02;;;;;;;12.90;75.63;100272.78;5034706;27;99064;-29
2023/03/24 09:07:34;;;;;;;2.95;0.57;;;;;;;12.77;76.82;100274.72;5033945;28;96588;-28
2023/03/24 09:10:00;;;;;;;5.45;0.70;;;;;;;12.70;77.21;100273.50;5033982;28;96974;-28
2023/03/24 09:12:25;;;;;;;2.83;0.70;;;;;;;12.81;77.27;100278.09;5035184;27;97895;-28
2023/03/24 09:14:51;;;;;;;4.63;0.82;;;;;;;12.95;77.25;100286.84;5035355;27;97272;-28
2023/03/24 09:17:17;;;;;;;1.38;0.50;;;;;;;12.87;77.69;100278.47;5035171;27;96475;-28
2023/03/24 09:19:43;;;;;;;3.25;0.63;;;;;;;12.76;77.44;100278.44;5034121;28;96790;-29
2023/03/24 09:22:09;;;;;;;1.50;0.75;;;;;;;12.66;76.65;100289.19;5034195;27;97386;-28
2023/03/24 09:24:35;;;;;;;5.85;1.38;;;;;;;12.68;77.46;100289.06;5034821;28;97903;-30
2023/03/24 09:27:00;;;;;;;2.28;0.70;;;;;;;12.73;77.67;100293.16;5032527;28;96883;-28
2023/03/24 09:29:26;;;;;;;1.10;0.50;;;;;;;12.68;73.95;100281.78;5034876;27;96926;-28
2023/03/24 09:31:52;;;;;;;0.93;0.40;;;;;;;12.60;76.40;100288.81;5033053;27;99274;-29
2023/03/24 09:34:19;;;;;;;5.35;0.85;;;;;;;12.51;76.21;100296.72;5034327;27;99260;-29
2023/03/24 09:36:45;;;;;;;3.08;0.93;;;;;;;12.40;76.29;100293.09;5017037;28;96629;-30
2023/03/24 09:39:10;;;;;;;2.05;0.80;;;;;;;12.65;76.59;100297.47;5034990;27;96854;-28
2023/03/24 09:41:35;;;;;;;2.13;0.70;;;;;;;12.66;75.59;100291.91;5034681;27;97466;-29
2023/03/24 09:44:24;;;;;;;2.38;0.70;;;;;;;12.59;74.68;100292.53;5034826;27;99281;-28
2023/03/24 09:47:19;;;;;;;2.63;0.60;;;;;;;12.50;75.81;100313.97;5033436;28;96682;-28
2023/03/24 09:49:47;;;;;;;2.35;0.90;;;;;;;12.40;75.17;100310.25;5029249;28;96927;-28
2023/03/24 09:52:19;;;;;;;2.03;0.73;;;;;;;12.57;74.05;100302.66;5032468;28;101701;-28
2023/03/24 09:54:51;;;;;;;4.47;0.68;;;;;;;12.56;75.19;100315.38;5034494;28;97326;-28
2023/03/24 09:57:24;;;;;;;5.45;1.00;;;;;;;13.00;73.53;100308.22;5033239;28;96616;-28
2023/03/24 09:59:49;;;;;;;5.25;1.00;;;;;;;13.60;73.14;100296.06;5033233;28;96706;-28
2023/03/24 10:02:20;;;;;;;3.03;0.90;;;;;;;13.92;71.50;100303.41;5034264;27;99887;-28
2023/03/24 10:04:47;;;;;;;1.58;0.65;;;;;;;13.64;71.05;100302.13;5032879;28;101114;-30
2023/03/24 10:07:28;;;;;;;5.15;0.90;;;;;;;13.47;70.65;100294.50;5033148;28;96597;-30
2023/03/24 10:09:59;;;;;;;3.03;0.80;;;;;;;13.86;70.85;100297.63;5033460;28;97480;-28
2023/03/24 10:12:36;;;;;;;4.10;1.02;;;;;;;14.52;69.72;100301.00;5032844;28;100918;-28
2023/03/24 10:15:31;;;;;;;2.30;0.85;;;;;;;14.92;67.45;100303.00;5032632;28;100444;-29
2023/03/24 10:18:29;;;;;;;3.65;0.70;;;;;;;14.94;66.24;100289.19;5034156;27;96579;-28
2023/03/24 10:21:19;;;;;;;3.15;1.13;;;;;;;14.35;68.55;100297.03;5032953;28;97523;-28
2023/03/24 10:23:53;;;;;;;3.47;0.60;;;;;;;14.11;70.25;100300.00;5032549;28;100905;-28
2023/03/24 10:26:26;;;;;;;4.75;1.33;;;;;;;14.17;70.58;100301.31;5033467;27;98272;-29
2023/03/24 10:29:00;;;;;;;0.77;0.55;;;;;;;14.62;70.13;100301.09;5034345;28;96536;-28
2023/03/24 10:31:32;;;;;;;1.77;0.90;;;;;;;14.68;68.06;100303.25;5032801;28;96758;-28
2023/03/24 10:33:58;;;;;;;4.65;1.08;;;;;;;14.23;68.99;100303.53;5035599;27;98049;-29
2023/03/24 10:36:26;;;;;;;2.63;0.85;;;;;;;13.92;69.64;100311.56;5037958;28;97349;-29
2023/03/24 10:38:52;;;;;;;2.20;0.80;;;;;;;13.63;71.14;100310.41;5036292;28;96548;-28
2023/03/24 10:41:28;;;;;;;6.00;0.75;;;;;;;13.66;71.19;100323.75;5036336;28;96899;-28
2023/03/24 10:43:56;;;;;;;1.40;0.60;;;;;;;13.63;71.69;100311.28;5036806;27;99664;-29
2023/03/24 10:46:28;;;;;;;4.20;0.80;;;;;;;13.74;71.32;100313.97;5035813;27;101226;-30
2023/03/24 10:49:05;;;;;;;7.32;0.98;;;;;;;13.69;71.66;100312.63;5036364;28;96521;-29
2023/03/24 10:51:33;;;;;;;3.83;0.80;;;;;;;13.85;71.97;100312.19;5037499;27;96582;-28
2023/03/24 10:54:10;;;;;;;1.65;0.55;;;;;;;13.86;71.76;100311.22;5037103;28;98284;-28
2023/03/24 10:56:42;;;;;;;3.45;0.70;;;;;;;13.81;72.03;100306.16;5035826;28;98892;-28
2023/03/24 10:59:30;;;;;;;3.17;0.60;;;;;;;13.76;72.20;100300.25;5036105;28;96675;-28
2023/03/24 11:02:08;;;;;;;3.03;0.90;;;;;;;13.54;72.30;100312.06;5037091;27;96663;-29
2023/03/24 11:04:34;;;;;;;1.77;0.57;;;;;;;13.73;71.79;100309.53;5035470;27;99551;-32
2023/03/24 11:07:23;;;;;;;3.45;0.95;;;;;;;13.81;71.41;100319.78;5033645;28;100671;-35
2023/03/24 11:10:05;;;;;;;3.60;1.02;;;;;;;13.77;70.42;100318.28;5034651;28;96778;-29
2023/03/24 11:12:34;;;;;;;1.80;0.65;;;;;;;13.94;70.57;100320.50;5035830;27;96883;-30
2023/03/24 11:15:12;;;;;;;4.90;0.80;;;;;;;14.24;69.09;100310.69;5035563;28;99585;-28
2023/03/24 11:17:37;;;;;;;2.85;0.68;;;;;;;14.56;67.12;100305.22;5035491;28;101277;-28
2023/03/24 11:20:07;;;;;;;3.40;0.70;;;;;;;15.18;67.55;100310.69;5037065;27;97431;-29
2023/03/24 11:22:32;;;;;;;2.50;0.35;;;;;;;15.53;66.53;100310.25;5033742;27;96979;-31
2023/03/24 11:24:58;;;;;;;1.23;0.35;;;;;;;15.16;65.85;100305.41;5034076;27;97836;-32
2023/03/24 11:27:23;;;;;;;2.25;0.45;;;;;;;15.02;66.65;100311.22;5034149;27;98054;-29
2023/03/24 11:29:53;;;;;;;1.55;0.50;;;;;;;14.97;67.34;100321.66;5034849;28;96697;-31
2023/03/24 11:32:26;;;;;;;2.45;0.30;;;;;;;14.75;66.02;100304.44;5032859;28;96857;-29
2023/03/24 11:35:02;;;;;;;3.05;0.60;;;;;;;14.49;64.67;100316.75;5032248;28;101771;-29
2023/03/24 11:37:32;;;;;;;3.78;0.90;;;;;;;14.25;67.01;100328.75;5035486;27;100152;-28
2023/03/24 11:40:15;;;;;;;2.25;0.50;;;;;;;14.22;67.37;100318.97;5035611;28;96776;-28
2023/03/24 11:42:46;;;;;;;3.83;0.73;;;;;;;14.18;67.58;100313.94;5036766;28;96633;-28